createdAt,value
2018-07-05T00:00:00.388Z,607.8
2018-07-05T00:01:02.273Z,608.6
2018-07-05T00:02:04.461Z,608.4
2018-07-05T00:03:06.899Z,608.8
2018-07-05T00:04:08.815Z,609.2
2018-07-05T00:05:10.963Z,609.7
2018-07-05T00:06:13.410Z,609.3
2018-07-05T00:07:15.579Z,609.3
2018-07-05T00:08:18.020Z,609.2
2018-07-05T00:09:20.194Z,609.1
2018-07-05T00:10:22.077Z,609
2018-07-05T00:11:24.538Z,609.1
2018-07-05T00:12:27.002Z,608.8
2018-07-05T00:13:29.453Z,608.8
2018-07-05T00:14:31.631Z,608.9
2018-07-05T00:15:33.798Z,608.9
2018-07-05T00:16:35.983Z,608.5
2018-07-05T00:17:38.418Z,608
2018-07-05T00:18:40.590Z,607.9
2018-07-05T00:19:42.775Z,607.8
2018-07-05T00:20:45.223Z,607.8
2018-07-05T00:21:47.671Z,607.6
2018-07-05T00:22:49.553Z,607.8
2018-07-05T00:23:51.457Z,607.7
2018-07-05T00:24:53.639Z,607.5
2018-07-05T00:25:55.520Z,607.8
2018-07-05T00:26:57.698Z,607.9
2018-07-05T00:28:00.137Z,607.9
2018-07-05T00:29:02.597Z,607.9
2018-07-05T00:30:05.049Z,608.1
2018-07-05T00:31:07.519Z,607.8
2018-07-05T00:32:09.708Z,607.5
2018-07-05T00:33:12.168Z,608
2018-07-05T00:34:14.618Z,608
2018-07-05T00:35:16.538Z,607.8
2018-07-05T00:36:18.995Z,607.5
2018-07-05T00:37:21.439Z,607.5
2018-07-05T00:38:23.339Z,607.6
2018-07-05T00:39:25.787Z,607.5
2018-07-05T00:40:27.969Z,607.7
2018-07-05T00:41:30.137Z,607.9
2018-07-05T00:42:32.579Z,607.7
2018-07-05T00:43:34.724Z,608.1
2018-07-05T00:44:36.899Z,608.3
2018-07-05T00:45:39.350Z,607.8
2018-07-05T00:46:41.247Z,608.1
2018-07-05T00:47:43.698Z,608.2
2018-07-05T00:48:45.884Z,608.4
2018-07-05T00:49:47.801Z,608
2018-07-05T00:50:49.703Z,608.3
2018-07-05T00:51:51.882Z,608.1
2018-07-05T00:52:54.058Z,608.8
2018-07-05T00:53:56.228Z,608.7
2018-07-05T00:54:58.385Z,608.8
2018-07-05T00:56:00.556Z,609
2018-07-05T00:57:02.467Z,609.1
2018-07-05T00:58:04.911Z,609.8
2018-07-05T00:59:06.270Z,609.6
2018-07-05T01:00:08.724Z,610.1
2018-07-05T01:01:10.892Z,609.9
2018-07-05T01:02:12.797Z,609.5
2018-07-05T01:03:14.963Z,609.9
2018-07-05T01:04:17.122Z,609.9
2018-07-05T01:05:19.558Z,610.2
2018-07-05T01:06:21.489Z,610.5
2018-07-05T01:07:23.938Z,610.3
2018-07-05T01:08:26.415Z,610.4
2018-07-05T01:09:28.298Z,610.2
2018-07-05T01:10:30.205Z,610.3
2018-07-05T01:11:32.663Z,610.5
2018-07-05T01:12:34.994Z,610.5
2018-07-05T01:13:37.429Z,610.4
2018-07-05T01:14:39.348Z,610.4
2018-07-05T01:15:40.680Z,610.1
2018-07-05T01:16:42.578Z,610.3
2018-07-05T01:17:45.039Z,610.5
2018-07-05T01:18:46.927Z,610.4
2018-07-05T01:19:48.817Z,610.2
2018-07-05T01:20:50.999Z,610.2
2018-07-05T01:21:53.171Z,610.2
2018-07-05T01:22:55.608Z,610.4
2018-07-05T01:23:57.493Z,610.3
2018-07-05T01:24:59.947Z,610.4
2018-07-05T01:26:02.392Z,610.3
2018-07-05T01:27:04.292Z,610.5
2018-07-05T01:28:06.469Z,611
2018-07-05T01:29:08.917Z,611.1
2018-07-05T01:30:10.828Z,611.3
2018-07-05T01:31:13.270Z,611
2018-07-05T01:32:15.446Z,611
2018-07-05T01:33:17.649Z,610.9
2018-07-05T01:34:20.099Z,611.2
2018-07-05T01:35:22.547Z,610.8
2018-07-05T01:36:24.722Z,610.9
2018-07-05T01:37:26.890Z,611
2018-07-05T01:38:29.337Z,611.1
2018-07-05T01:39:31.783Z,611.5
2018-07-05T01:40:33.947Z,611.6
2018-07-05T01:41:36.407Z,612.2
2018-07-05T01:42:38.604Z,611.9
2018-07-05T01:43:41.051Z,612
2018-07-05T01:44:43.217Z,611.9
2018-07-05T01:45:45.393Z,611.8
2018-07-05T01:46:47.841Z,611.8
2018-07-05T01:47:50.274Z,611.5
2018-07-05T01:48:52.729Z,611.2
2018-07-05T01:49:54.899Z,611.3
2018-07-05T01:50:57.348Z,610.9
2018-07-05T01:51:59.512Z,610.8
2018-07-05T01:53:01.136Z,610.9
2018-07-05T01:54:03.314Z,610.1
2018-07-05T01:55:05.752Z,610.3
2018-07-05T01:56:07.658Z,610
2018-07-05T01:57:10.121Z,610.1
2018-07-05T01:58:12.567Z,609.6
2018-07-05T01:59:14.726Z,610.1
2018-07-05T02:00:16.905Z,609.9
2018-07-05T02:01:19.343Z,610
2018-07-05T02:02:21.255Z,610.2
2018-07-05T02:03:23.438Z,610.3
2018-07-05T02:04:25.879Z,610.1
2018-07-05T02:05:28.328Z,610.2
2018-07-05T02:06:30.248Z,610
2018-07-05T02:07:32.707Z,609.9
2018-07-05T02:08:35.144Z,610
2018-07-05T02:09:37.313Z,610.4
2018-07-05T02:10:39.757Z,610.3
2018-07-05T02:11:41.911Z,610.4
2018-07-05T02:12:44.354Z,610.5
2018-07-05T02:13:45.695Z,610.1
2018-07-05T02:14:47.859Z,610.5
2018-07-05T02:15:50.037Z,610.4
2018-07-05T02:16:51.909Z,610.3
2018-07-05T02:17:54.349Z,610.3
2018-07-05T02:18:56.796Z,610.3
2018-07-05T02:19:59.254Z,609.7
2018-07-05T02:21:01.735Z,609.7
2018-07-05T02:22:04.188Z,609.5
2018-07-05T02:23:06.351Z,609.6
2018-07-05T02:24:08.267Z,609.7
2018-07-05T02:25:10.151Z,609.8
2018-07-05T02:26:11.518Z,609.7
2018-07-05T02:27:13.695Z,609.8
2018-07-05T02:28:15.871Z,609.8
2018-07-05T02:29:18.045Z,609.6
2018-07-05T02:30:20.505Z,609.6
2018-07-05T02:31:22.389Z,609.7
2018-07-05T02:32:24.830Z,609.9
2018-07-05T02:33:27.001Z,610
2018-07-05T02:34:28.886Z,609.8
2018-07-05T02:35:31.337Z,610
2018-07-05T02:36:33.796Z,609.8
2018-07-05T02:37:35.703Z,610
2018-07-05T02:38:37.577Z,610.1
2018-07-05T02:39:39.748Z,610.1
2018-07-05T02:40:42.225Z,610.5
2018-07-05T02:41:44.666Z,610.4
2018-07-05T02:42:47.117Z,610.8
2018-07-05T02:43:49.026Z,610.6
2018-07-05T02:44:51.190Z,610.8
2018-07-05T02:45:53.634Z,611.4
2018-07-05T02:46:55.808Z,611.1
2018-07-05T02:47:58.245Z,611.1
2018-07-05T02:49:00.150Z,612
2018-07-05T02:50:02.326Z,612
2018-07-05T02:51:04.794Z,612.5
2018-07-05T02:52:07.233Z,612.9
2018-07-05T02:53:09.420Z,612.8
2018-07-05T02:54:11.603Z,612.6
2018-07-05T02:55:13.754Z,612.8
2018-07-05T02:56:16.209Z,612.7
2018-07-05T02:57:18.362Z,612.7
2018-07-05T02:58:20.805Z,612.8
2018-07-05T02:59:23.253Z,612.6
2018-07-05T03:00:25.433Z,612.5
2018-07-05T03:01:27.886Z,612.7
2018-07-05T03:02:29.787Z,613
2018-07-05T03:03:32.232Z,612.9
2018-07-05T03:04:34.669Z,612.9
2018-07-05T03:05:37.119Z,613.5
2018-07-05T03:06:39.560Z,613.3
2018-07-05T03:07:41.763Z,613.4
2018-07-05T03:08:43.660Z,613.6
2018-07-05T03:09:45.831Z,613.5
2018-07-05T03:10:47.173Z,613.5
2018-07-05T03:11:49.623Z,613
2018-07-05T03:12:51.525Z,613.1
2018-07-05T03:13:53.200Z,612.9
2018-07-05T03:14:55.345Z,613
2018-07-05T03:15:57.231Z,612.9
2018-07-05T03:16:59.690Z,612.7
2018-07-05T03:18:02.152Z,612.1
2018-07-05T03:19:04.603Z,612.6
2018-07-05T03:20:06.773Z,612.4
2018-07-05T03:21:08.669Z,611.8
2018-07-05T03:22:11.117Z,612.1
2018-07-05T03:23:13.565Z,611.1
2018-07-05T03:24:15.730Z,611.1
2018-07-05T03:25:18.174Z,610.8
2018-07-05T03:26:20.091Z,611
2018-07-05T03:27:22.544Z,611.3
2018-07-05T03:28:24.718Z,611.1
2018-07-05T03:29:27.068Z,610.9
2018-07-05T03:30:29.529Z,611.2
2018-07-05T03:31:32.037Z,610.9
2018-07-05T03:32:34.199Z,611.5
2018-07-05T03:33:36.378Z,611.4
2018-07-05T03:34:38.822Z,611
2018-07-05T03:35:40.750Z,611.1
2018-07-05T03:36:42.909Z,610.9
2018-07-05T03:37:45.059Z,611.1
2018-07-05T03:38:46.711Z,610.8
2018-07-05T03:39:48.884Z,611
2018-07-05T03:40:51.326Z,611
2018-07-05T03:41:53.236Z,610.6
2018-07-05T03:42:55.134Z,610.8
2018-07-05T03:43:57.598Z,611.2
2018-07-05T03:44:59.788Z,611
2018-07-05T03:46:01.961Z,611.2
2018-07-05T03:47:04.137Z,611.1
2018-07-05T03:48:06.579Z,611.2
2018-07-05T03:49:09.031Z,611.7
2018-07-05T03:50:11.476Z,611.5
2018-07-05T03:51:13.917Z,611.7
2018-07-05T03:52:16.369Z,611.9
2018-07-05T03:53:18.540Z,611.9
2018-07-05T03:54:20.986Z,612.7
2018-07-05T03:55:23.144Z,612.8
2018-07-05T03:56:25.318Z,612.6
2018-07-05T03:57:27.507Z,612.9
2018-07-05T03:58:29.678Z,612.6
2018-07-05T03:59:32.123Z,612.8
2018-07-05T04:00:34.559Z,612.1
2018-07-05T04:01:37.010Z,611.8
2018-07-05T04:02:39.716Z,612.2
2018-07-05T04:03:41.879Z,612
2018-07-05T04:04:43.760Z,611.6
2018-07-05T04:05:45.928Z,611.5
2018-07-05T04:06:48.104Z,611.6
2018-07-05T04:07:50.560Z,612
2018-07-05T04:08:53.000Z,612
2018-07-05T04:09:55.451Z,612.1
2018-07-05T04:10:57.634Z,612.7
2018-07-05T04:11:59.535Z,612.5
2018-07-05T04:13:01.720Z,612.3
2018-07-05T04:14:03.899Z,612.5
2018-07-05T04:15:06.051Z,612.2
2018-07-05T04:16:07.925Z,612.4
2018-07-05T04:17:09.251Z,612.1
2018-07-05T04:18:11.701Z,612.5
2018-07-05T04:19:13.878Z,612.6
2018-07-05T04:20:16.044Z,612.4
2018-07-05T04:21:17.956Z,612.6
2018-07-05T04:22:20.101Z,612.4
2018-07-05T04:23:21.759Z,612.8
2018-07-05T04:24:24.243Z,613.5
2018-07-05T04:25:26.683Z,612.9
2018-07-05T04:26:29.138Z,612.8
2018-07-05T04:27:31.287Z,612.6
2018-07-05T04:28:33.190Z,612.8
2018-07-05T04:29:35.105Z,612.4
2018-07-05T04:30:36.743Z,612.4
2018-07-05T04:31:38.638Z,612.6
2018-07-05T04:32:40.545Z,612.5
2018-07-05T04:33:42.445Z,612.7
2018-07-05T04:34:44.380Z,612.7
2018-07-05T04:35:46.304Z,612.7
2018-07-05T04:36:48.765Z,612.6
2018-07-05T04:37:50.944Z,612.6
2018-07-05T04:38:53.128Z,612.9
2018-07-05T04:39:55.035Z,613.4
2018-07-05T04:40:57.228Z,613.4
2018-07-05T04:41:59.409Z,613.3
2018-07-05T04:43:01.594Z,613.6
2018-07-05T04:44:03.768Z,613.3
2018-07-05T04:45:06.234Z,613.3
2018-07-05T04:46:08.142Z,613
2018-07-05T04:47:10.311Z,612.9
2018-07-05T04:48:11.925Z,612.7
2018-07-05T04:49:13.828Z,612.7
2018-07-05T04:50:15.449Z,612.6
2018-07-05T04:51:17.900Z,612.6
2018-07-05T04:52:19.778Z,612.7
2018-07-05T04:53:21.396Z,612.7
2018-07-05T04:54:23.591Z,612.7
2018-07-05T04:55:25.300Z,612.1
2018-07-05T04:56:27.488Z,612.6
2018-07-05T04:57:29.678Z,612.2
2018-07-05T04:58:32.140Z,612
2018-07-05T04:59:34.113Z,612.1
2018-07-05T05:00:36.387Z,612
2018-07-05T05:01:38.658Z,611.9
2018-07-05T05:02:41.153Z,611.7
2018-07-05T05:03:42.825Z,611.4
2018-07-05T05:04:45.318Z,611.5
2018-07-05T05:05:47.771Z,611.4
2018-07-05T05:06:49.949Z,611.1
2018-07-05T05:07:52.400Z,611.4
2018-07-05T05:08:54.008Z,611.1
2018-07-05T05:09:56.461Z,610.8
2018-07-05T05:10:58.905Z,610.6
2018-07-05T05:12:01.061Z,610.3
2018-07-05T05:13:03.328Z,610
2018-07-05T05:14:05.221Z,610
2018-07-05T05:15:07.758Z,610
2018-07-05T05:16:10.032Z,610
2018-07-05T05:17:12.319Z,609.8
2018-07-05T05:18:14.823Z,609.8
2018-07-05T05:19:16.991Z,609.8
2018-07-05T05:20:18.882Z,609.6
2018-07-05T05:21:21.318Z,609.9
2018-07-05T05:22:23.489Z,610.1
2018-07-05T05:23:25.942Z,609.6
2018-07-05T05:24:28.402Z,609.8
2018-07-05T05:25:30.838Z,610.1
2018-07-05T05:26:33.017Z,610
2018-07-05T05:27:35.469Z,610.2
2018-07-05T05:28:37.917Z,610.2
2018-07-05T05:29:40.360Z,610
2018-07-05T05:30:42.822Z,610
2018-07-05T05:31:44.997Z,609.7
2018-07-05T05:32:46.899Z,609.4
2018-07-05T05:33:49.087Z,609.3
2018-07-05T05:34:51.288Z,608.7
2018-07-05T05:35:53.736Z,609.2
2018-07-05T05:36:56.282Z,609.1
2018-07-05T05:37:58.237Z,609.2
2018-07-05T05:39:01.041Z,609.4
2018-07-05T05:40:03.169Z,609.7
2018-07-05T05:41:05.637Z,609.4
2018-07-05T05:42:07.817Z,609.5
2018-07-05T05:43:10.048Z,609.5
2018-07-05T05:44:12.223Z,609.7
2018-07-05T05:45:14.799Z,609.8
2018-07-05T05:46:16.988Z,609.9
2018-07-05T05:47:19.147Z,610.4
2018-07-05T05:48:21.599Z,610.5
2018-07-05T05:49:24.037Z,610.4
2018-07-05T05:50:26.494Z,610.5
2018-07-05T05:51:28.968Z,610.9
2018-07-05T05:52:31.425Z,610.6
2018-07-05T05:53:33.877Z,610.6
2018-07-05T05:54:36.052Z,610.8
2018-07-05T05:55:38.517Z,610.6
2018-07-05T05:56:41.004Z,610.3
2018-07-05T05:57:43.448Z,610.1
2018-07-05T05:58:45.890Z,609.8
2018-07-05T05:59:48.365Z,609.6
2018-07-05T06:00:50.270Z,609.4
2018-07-05T06:01:52.244Z,609.3
2018-07-05T06:02:54.411Z,609.1
2018-07-05T06:03:56.557Z,609.4
2018-07-05T06:04:58.768Z,609.5
2018-07-05T06:06:00.654Z,609.2
2018-07-05T06:07:02.312Z,609.1
2018-07-05T06:08:05.002Z,609.5
2018-07-05T06:09:06.824Z,609.5
2018-07-05T06:10:09.286Z,609.3
2018-07-05T06:11:11.462Z,609.3
2018-07-05T06:12:13.908Z,609.6
2018-07-05T06:13:15.802Z,609.2
2018-07-05T06:14:18.264Z,609.3
2018-07-05T06:15:20.607Z,609.6
2018-07-05T06:16:22.457Z,609.6
2018-07-05T06:17:24.377Z,609.6
2018-07-05T06:18:26.280Z,609.3
2018-07-05T06:19:28.743Z,609.7
2018-07-05T06:20:30.952Z,609.5
2018-07-05T06:21:33.121Z,609.4
2018-07-05T06:22:35.578Z,609
2018-07-05T06:23:37.768Z,608.9
2018-07-05T06:24:39.369Z,609.3
2018-07-05T06:25:42.269Z,609.6
2018-07-05T06:26:44.722Z,609.2
2018-07-05T06:27:47.173Z,609.4
2018-07-05T06:28:49.377Z,609.4
2018-07-05T06:29:51.888Z,609.6
2018-07-05T06:30:54.364Z,609.7
2018-07-05T06:31:56.830Z,609.4
2018-07-05T06:32:59.012Z,609.7
2018-07-05T06:34:01.516Z,609.7
2018-07-05T06:35:03.978Z,609.4
2018-07-05T06:36:06.254Z,609.7
2018-07-05T06:37:08.534Z,609.8
2018-07-05T06:38:10.700Z,609.9
2018-07-05T06:39:12.875Z,609.6
2018-07-05T06:40:15.334Z,609.6
2018-07-05T06:41:17.781Z,610.5
2018-07-05T06:42:20.238Z,610.3
2018-07-05T06:43:22.129Z,610.2
2018-07-05T06:44:24.585Z,610.5
2018-07-05T06:45:26.598Z,610
2018-07-05T06:46:28.500Z,609.8
2018-07-05T06:47:30.866Z,609.5
2018-07-05T06:48:33.051Z,609.6
2018-07-05T06:49:35.239Z,609.4
2018-07-05T06:50:37.686Z,609.1
2018-07-05T06:51:39.840Z,608.9
2018-07-05T06:52:42.068Z,609
2018-07-05T06:53:44.249Z,609.2
2018-07-05T06:54:46.516Z,609.3
2018-07-05T06:55:48.412Z,608.9
2018-07-05T06:56:50.595Z,608.7
2018-07-05T06:57:53.039Z,608.3
2018-07-05T06:58:55.535Z,608.2
2018-07-05T06:59:57.762Z,607.9
2018-07-05T07:01:00.009Z,608.2
2018-07-05T07:02:02.522Z,608.2
2018-07-05T07:03:04.720Z,608.2
2018-07-05T07:04:07.049Z,608
2018-07-05T07:05:09.214Z,608.2
2018-07-05T07:06:11.655Z,607.9
2018-07-05T07:07:14.222Z,607.7
2018-07-05T07:08:16.117Z,607.6
2018-07-05T07:09:18.561Z,607.6
2018-07-05T07:10:20.733Z,607.5
2018-07-05T07:11:23.176Z,607.4
2018-07-05T07:12:25.626Z,607.8
2018-07-05T07:13:27.826Z,607.3
2018-07-05T07:14:29.990Z,607.3
2018-07-05T07:15:31.631Z,607.4
2018-07-05T07:16:33.523Z,607.6
2018-07-05T07:17:35.975Z,607.2
2018-07-05T07:18:38.161Z,607.2
2018-07-05T07:19:40.333Z,607.2
2018-07-05T07:20:42.513Z,607.3
2018-07-05T07:21:45.094Z,607.3
2018-07-05T07:22:47.566Z,607.5
2018-07-05T07:23:49.746Z,607.7
2018-07-05T07:24:51.660Z,607.4
2018-07-05T07:25:54.112Z,607.4
2018-07-05T07:26:56.310Z,607.1
2018-07-05T07:27:58.480Z,607.6
2018-07-05T07:29:00.763Z,607.6
2018-07-05T07:30:02.957Z,607.7
2018-07-05T07:31:04.828Z,607.4
2018-07-05T07:32:07.273Z,607.6
2018-07-05T07:33:09.551Z,607.5
2018-07-05T07:34:12.069Z,607.8
2018-07-05T07:35:13.699Z,607.6
2018-07-05T07:36:16.181Z,607.4
2018-07-05T07:37:18.649Z,607.7
2018-07-05T07:38:20.829Z,607.5
2018-07-05T07:39:23.269Z,607.8
2018-07-05T07:40:25.739Z,607.6
2018-07-05T07:41:28.203Z,607.4
2018-07-05T07:42:30.383Z,607.6
2018-07-05T07:43:32.824Z,607.4
2018-07-05T07:44:35.010Z,607.8
2018-07-05T07:45:37.806Z,607.7
2018-07-05T07:46:40.290Z,607.7
2018-07-05T07:47:42.470Z,608.1
2018-07-05T07:48:44.948Z,608
2018-07-05T07:49:47.116Z,608
2018-07-05T07:50:49.314Z,607.9
2018-07-05T07:51:51.223Z,608.5
2018-07-05T07:52:53.410Z,608.6
2018-07-05T07:53:55.591Z,608.6
2018-07-05T07:54:57.768Z,608.1
2018-07-05T07:55:59.681Z,608.3
2018-07-05T07:57:02.129Z,608.2
2018-07-05T07:58:03.767Z,608.4
2018-07-05T07:59:06.219Z,608.1
2018-07-05T08:00:08.665Z,608.4
2018-07-05T08:01:10.849Z,608.5
2018-07-05T08:02:13.025Z,608.6
2018-07-05T08:03:15.224Z,608.4
2018-07-05T08:04:17.125Z,608.8
2018-07-05T08:05:19.601Z,608.7
2018-07-05T08:06:21.795Z,608.8
2018-07-05T08:07:24.252Z,609.1
2018-07-05T08:08:26.161Z,609.3
2018-07-05T08:09:28.081Z,609.3
2018-07-05T08:10:30.258Z,609.2
2018-07-05T08:11:32.662Z,609
2018-07-05T08:12:34.557Z,609.1
2018-07-05T08:13:36.722Z,609.2
2018-07-05T08:14:39.162Z,609
2018-07-05T08:15:40.799Z,609.3
2018-07-05T08:16:42.998Z,608.9
2018-07-05T08:17:45.453Z,609.1
2018-07-05T08:18:47.373Z,608.8
2018-07-05T08:19:49.596Z,608.6
2018-07-05T08:20:51.780Z,609.1
2018-07-05T08:21:53.957Z,609
2018-07-05T08:22:56.433Z,608.8
2018-07-05T08:23:58.590Z,609
2018-07-05T08:25:00.513Z,609.1
2018-07-05T08:26:02.961Z,609.3
2018-07-05T08:27:04.852Z,609.5
2018-07-05T08:28:07.042Z,609.2
2018-07-05T08:29:09.229Z,609.4
2018-07-05T08:30:11.684Z,609.4
2018-07-05T08:31:14.227Z,609.8
2018-07-05T08:32:16.411Z,609.7
2018-07-05T08:33:18.331Z,609.9
2018-07-05T08:34:20.500Z,610.1
2018-07-05T08:35:22.400Z,610.6
2018-07-05T08:36:24.847Z,610.7
2018-07-05T08:37:26.778Z,610.6
2018-07-05T08:38:29.226Z,610.7
2018-07-05T08:39:31.691Z,610.7
2018-07-05T08:40:33.870Z,611.1
2018-07-05T08:41:36.049Z,610.6
2018-07-05T08:42:38.500Z,610.8
2018-07-05T08:43:40.662Z,611
2018-07-05T08:44:42.674Z,611.1
2018-07-05T08:45:45.199Z,610.6
2018-07-05T08:46:47.670Z,610.6
2018-07-05T08:47:49.856Z,610.9
2018-07-05T08:48:52.038Z,610.6
2018-07-05T08:49:53.939Z,610.3
2018-07-05T08:50:56.389Z,610.7
2018-07-05T08:51:58.850Z,610.6
2018-07-05T08:53:01.302Z,611
2018-07-05T08:54:03.791Z,610.9
2018-07-05T08:55:06.242Z,610.9
2018-07-05T08:56:08.694Z,610.7
2018-07-05T08:57:11.162Z,610.5
2018-07-05T08:58:13.736Z,610.8
2018-07-05T08:59:16.195Z,610.9
2018-07-05T09:00:18.378Z,610.9
2018-07-05T09:01:20.548Z,611.1
2018-07-05T09:02:22.716Z,611
2018-07-05T09:03:24.897Z,610.7
2018-07-05T09:04:27.346Z,611.2
2018-07-05T09:05:28.953Z,611.3
2018-07-05T09:06:30.636Z,611.2
2018-07-05T09:07:33.087Z,611.4
2018-07-05T09:08:34.992Z,611.4
2018-07-05T09:09:37.174Z,611.5
2018-07-05T09:10:39.352Z,611.2
2018-07-05T09:11:41.793Z,611.4
2018-07-05T09:12:44.259Z,611.5
2018-07-05T09:13:46.159Z,611.1
2018-07-05T09:14:48.351Z,611.3
2018-07-05T09:15:50.805Z,611.2
2018-07-05T09:16:53.263Z,610.9
2018-07-05T09:17:57.805Z,610.8
2018-07-05T09:19:00.346Z,610.9
2018-07-05T09:20:02.799Z,611
2018-07-05T09:21:05.246Z,611.1
2018-07-05T09:22:07.710Z,611
2018-07-05T09:23:10.424Z,611
2018-07-05T09:24:12.336Z,611.4
2018-07-05T09:25:14.500Z,611
2018-07-05T09:26:16.954Z,610.7
2018-07-05T09:27:19.407Z,611.2
2018-07-05T09:28:21.578Z,611.1
2018-07-05T09:29:23.758Z,611.1
2018-07-05T09:30:25.939Z,610.9
2018-07-05T09:31:28.569Z,611.2
2018-07-05T09:32:30.753Z,611.4
2018-07-05T09:33:32.658Z,611.2
2018-07-05T09:34:35.106Z,611.2
2018-07-05T09:35:37.312Z,611.5
2018-07-05T09:36:39.227Z,611.7
2018-07-05T09:37:42.201Z,611.8
2018-07-05T09:38:44.468Z,611.9
2018-07-05T09:39:46.394Z,611.8
2018-07-05T09:40:48.578Z,611.8
2018-07-05T09:41:50.769Z,612
2018-07-05T09:42:53.217Z,611.5
2018-07-05T09:43:55.682Z,611.6
2018-07-05T09:44:57.575Z,612
2018-07-05T09:45:59.760Z,611.8
2018-07-05T09:47:02.754Z,612.1
2018-07-05T09:48:04.939Z,612.2
2018-07-05T09:49:07.105Z,612.7
2018-07-05T09:50:09.292Z,612.6
2018-07-05T09:51:11.749Z,612.8
2018-07-05T09:52:13.948Z,612.8
2018-07-05T09:53:16.402Z,613.3
2018-07-05T09:54:18.314Z,613.5
2018-07-05T09:55:20.768Z,613.9
2018-07-05T09:56:22.669Z,613.7
2018-07-05T09:57:24.549Z,613.6
2018-07-05T09:58:26.728Z,613.6
2018-07-05T09:59:29.185Z,613.8
2018-07-05T10:00:31.069Z,614
2018-07-05T10:01:33.251Z,614
2018-07-05T10:02:35.399Z,614.2
2018-07-05T10:03:38.402Z,614.1
2018-07-05T10:04:40.909Z,614.3
2018-07-05T10:05:43.079Z,614.5
2018-07-05T10:06:45.265Z,614.4
2018-07-05T10:07:47.719Z,614.5
2018-07-05T10:08:49.636Z,614.6
2018-07-05T10:09:52.131Z,614.4
2018-07-05T10:10:54.288Z,614.2
2018-07-05T10:11:56.489Z,614.6
2018-07-05T10:12:58.873Z,614.6
2018-07-05T10:14:01.603Z,614.4
2018-07-05T10:15:04.046Z,614.5
2018-07-05T10:16:05.928Z,614.5
2018-07-05T10:17:08.387Z,614.6
2018-07-05T10:18:10.287Z,614.8
2018-07-05T10:19:11.634Z,614.3
2018-07-05T10:20:13.808Z,614.2
2018-07-05T10:21:15.435Z,614.8
2018-07-05T10:22:17.891Z,614.8
2018-07-05T10:23:20.335Z,614.8
2018-07-05T10:24:22.799Z,614.9
2018-07-05T10:25:25.198Z,614.9
2018-07-05T10:26:27.649Z,614.7
2018-07-05T10:27:30.119Z,615
2018-07-05T10:28:32.584Z,615.2
2018-07-05T10:29:34.763Z,615.2
2018-07-05T10:30:37.198Z,614.9
2018-07-05T10:31:39.378Z,615.2
2018-07-05T10:32:41.564Z,615.3
2018-07-05T10:33:43.740Z,615.5
2018-07-05T10:34:45.906Z,615.9
2018-07-05T10:35:48.080Z,615.7
2018-07-05T10:36:50.012Z,615.9
2018-07-05T10:37:52.458Z,615.9
2018-07-05T10:38:54.908Z,616
2018-07-05T10:39:57.091Z,615.9
2018-07-05T10:40:59.248Z,615.9
2018-07-05T10:42:01.139Z,616
2018-07-05T10:43:03.062Z,616.2
2018-07-05T10:44:05.520Z,616.3
2018-07-05T10:45:07.973Z,616.2
2018-07-05T10:46:10.866Z,616.3
2018-07-05T10:47:13.311Z,615.7
2018-07-05T10:48:15.773Z,616.5
2018-07-05T10:49:18.242Z,616.4
2018-07-05T10:50:20.696Z,616.3
2018-07-05T10:51:22.613Z,616.3
2018-07-05T10:52:24.801Z,616.5
2018-07-05T10:53:27.250Z,616.6
2018-07-05T10:54:29.439Z,617
2018-07-05T10:55:31.893Z,616.9
2018-07-05T10:56:34.114Z,617.2
2018-07-05T10:57:35.767Z,616.5
2018-07-05T10:58:38.231Z,616.6
2018-07-05T10:59:40.442Z,616.7
2018-07-05T11:00:42.347Z,616.9
2018-07-05T11:01:44.556Z,616.8
2018-07-05T11:02:46.457Z,617.1
2018-07-05T11:03:48.638Z,616.9
2018-07-05T11:04:51.157Z,617.3
2018-07-05T11:05:53.608Z,616.9
2018-07-05T11:06:56.051Z,617.2
2018-07-05T11:07:58.237Z,617.1
2018-07-05T11:09:00.710Z,617.1
2018-07-05T11:10:02.897Z,616.8
2018-07-05T11:11:05.074Z,616.8
2018-07-05T11:12:07.537Z,617.4
2018-07-05T11:13:09.720Z,617.5
2018-07-05T11:14:12.200Z,617.6
2018-07-05T11:15:14.425Z,617.4
2018-07-05T11:16:16.878Z,617.3
2018-07-05T11:17:18.769Z,617.4
2018-07-05T11:18:20.669Z,617.1
2018-07-05T11:19:23.135Z,616.8
2018-07-05T11:20:25.057Z,617.5
2018-07-05T11:21:27.218Z,617.4
2018-07-05T11:22:29.122Z,617.7
2018-07-05T11:23:31.580Z,617.7
2018-07-05T11:24:33.772Z,617.5
2018-07-05T11:25:35.959Z,617.5
2018-07-05T11:26:38.421Z,617.7
2018-07-05T11:27:40.580Z,617.1
2018-07-05T11:28:43.029Z,617.5
2018-07-05T11:29:45.499Z,617.1
2018-07-05T11:30:47.425Z,617.4
2018-07-05T11:31:49.620Z,616.9
2018-07-05T11:32:52.064Z,617.1
2018-07-05T11:33:54.304Z,617.1
2018-07-05T11:34:56.820Z,616.8
2018-07-05T11:35:59.275Z,616.8
2018-07-05T11:37:01.186Z,616.4
2018-07-05T11:38:03.360Z,616.9
2018-07-05T11:39:05.022Z,616.7
2018-07-05T11:40:07.217Z,616.9
2018-07-05T11:41:09.117Z,617.4
2018-07-05T11:42:11.357Z,616.8
2018-07-05T11:43:13.818Z,616.9
2018-07-05T11:44:15.737Z,617.2
2018-07-05T11:45:18.198Z,616.1
2018-07-05T11:46:20.647Z,616.8
2018-07-05T11:47:23.099Z,616.8
2018-07-05T11:48:25.011Z,617
2018-07-05T11:49:26.655Z,616.6
2018-07-05T11:50:29.120Z,616.9
2018-07-05T11:51:30.779Z,617.1
2018-07-05T11:52:32.956Z,617.1
2018-07-05T11:53:35.419Z,617.1
2018-07-05T11:54:37.906Z,616.5
2018-07-05T11:55:40.371Z,616.2
2018-07-05T11:56:42.825Z,616.8
2018-07-05T11:57:45.283Z,616.3
2018-07-05T11:58:47.848Z,616.2
2018-07-05T11:59:50.099Z,616.5
2018-07-05T12:00:52.298Z,616.4
2018-07-05T12:01:54.909Z,616.2
2018-07-05T12:02:57.409Z,616.8
2018-07-05T12:03:59.662Z,617
2018-07-05T12:05:01.817Z,616.4
2018-07-05T12:06:03.433Z,616.4
2018-07-05T12:07:05.600Z,616.4
2018-07-05T12:08:07.496Z,616.5
2018-07-05T12:09:09.657Z,616.7
2018-07-05T12:10:11.873Z,616.3
2018-07-05T12:11:14.323Z,617
2018-07-05T12:12:16.238Z,616.6
2018-07-05T12:13:18.417Z,616.9
2018-07-05T12:14:20.604Z,616.6
2018-07-05T12:15:22.778Z,616.8
2018-07-05T12:16:24.931Z,616.3
2018-07-05T12:17:27.082Z,616.6
2018-07-05T12:18:29.131Z,616
2018-07-05T12:19:31.361Z,616.8
2018-07-05T12:20:33.538Z,616.4
2018-07-05T12:21:35.419Z,616.5
2018-07-05T12:22:37.626Z,616.3
2018-07-05T12:23:39.530Z,616.8
2018-07-05T12:24:41.714Z,615.9
2018-07-05T12:25:43.903Z,616.7
2018-07-05T12:26:45.580Z,616.8
2018-07-05T12:27:47.500Z,616.8
2018-07-05T12:28:49.693Z,616.9
2018-07-05T12:29:52.135Z,616.7
2018-07-05T12:30:54.344Z,617.2
2018-07-05T12:31:56.804Z,617.2
2018-07-05T12:32:58.953Z,617.8
2018-07-05T12:34:01.421Z,617.7
2018-07-05T12:35:03.876Z,617.3
2018-07-05T12:36:06.057Z,617.7
2018-07-05T12:37:08.254Z,617.7
2018-07-05T12:38:10.646Z,617.5
2018-07-05T12:39:13.099Z,617.5
2018-07-05T12:40:15.717Z,617.6
2018-07-05T12:41:18.176Z,617.6
2018-07-05T12:42:20.359Z,617.4
2018-07-05T12:43:22.546Z,617.4
2018-07-05T12:44:24.732Z,617.2
2018-07-05T12:45:26.910Z,616.6
2018-07-05T12:46:29.099Z,617.2
2018-07-05T12:47:31.573Z,617.1
2018-07-05T12:48:34.041Z,616.9
2018-07-05T12:49:35.954Z,616.5
2018-07-05T12:50:37.850Z,616.6
2018-07-05T12:51:40.330Z,616.8
2018-07-05T12:52:42.529Z,617
2018-07-05T12:53:44.980Z,616.8
2018-07-05T12:54:47.429Z,616.9
2018-07-05T12:55:49.886Z,616.8
2018-07-05T12:56:52.088Z,616.6
2018-07-05T12:57:54.003Z,616.9
2018-07-05T12:58:56.199Z,616.9
2018-07-05T12:59:58.384Z,616.7
2018-07-05T13:01:00.561Z,616.3
2018-07-05T13:02:02.732Z,616.1
2018-07-05T13:03:04.916Z,616.4
2018-07-05T13:04:08.098Z,616.4
2018-07-05T13:05:10.579Z,616.6
2018-07-05T13:06:13.034Z,616.1
2018-07-05T13:07:14.652Z,615.6
2018-07-05T13:08:16.828Z,615.7
2018-07-05T13:09:19.276Z,616
2018-07-05T13:10:21.736Z,616.2
2018-07-05T13:11:24.241Z,615.6
2018-07-05T13:12:26.706Z,615.7
2018-07-05T13:13:29.156Z,615.5
2018-07-05T13:14:31.071Z,615.2
2018-07-05T13:15:33.259Z,615.7
2018-07-05T13:16:35.180Z,615.9
2018-07-05T13:17:37.658Z,615.8
2018-07-05T13:18:39.839Z,615.5
2018-07-05T13:19:42.287Z,615.2
2018-07-05T13:20:44.464Z,615.6
2018-07-05T13:21:46.913Z,615.2
2018-07-05T13:22:49.109Z,615.2
2018-07-05T13:23:51.290Z,615.5
2018-07-05T13:24:53.458Z,615.6
2018-07-05T13:25:55.899Z,614.8